Longtown, South Carolina
Current Conditions -  °F | °C
As of 2:35 PM on Tuesday 21 Oct 2014 (Local Time) from KFDW Reporting Station
Clear Clear  
Wind Chill: 75°   Ceiling: Unl
Heat Index: 75°   Visibility: 10mi
Dew Point: 46°   Wind: 7mph
Humidity: 36%   Direction: 230°SW
Pressure: 29.88"   Gusts: NA
Location:  34.3435°N, 80.9048°W
Report Text: KFDW 211835Z AUTO 23006KT 10SM CLR 24/08 A2988 RMK AO1
Loading
Personal Weather Stations






























Interactive Weather Map
Tropical Storm Tracking
New forecast layout! Learn more

10-Day Weather Forecast

Advertisements
Track Severe Weather on mobile